createdAt,value
2023-01-15T00:00:53.216Z,99619.88
2023-01-15T00:06:23.647Z,99628.78
2023-01-15T00:11:46.756Z,99620.22
2023-01-15T00:17:12.706Z,99592.71
2023-01-15T00:22:35.651Z,99591.33
2023-01-15T00:27:58.268Z,99576.05
2023-01-15T00:33:21.363Z,99577.39
2023-01-15T00:38:43.679Z,99594.39
2023-01-15T00:44:06.059Z,99584.02
2023-01-15T00:49:28.903Z,99594.57
2023-01-15T00:54:51.552Z,99578.56
2023-01-15T01:00:14.611Z,99561.62
2023-01-15T01:05:38.161Z,99517.32
2023-01-15T01:11:10.603Z,99515.16
2023-01-15T01:16:54.022Z,99494.79
2023-01-15T01:22:16.702Z,99505.46
2023-01-15T01:27:39.272Z,99482.66
2023-01-15T01:33:04.542Z,99521.13
2023-01-15T01:38:27.036Z,99494.04
2023-01-15T01:44:00.255Z,99459.92
2023-01-15T01:49:25.595Z,99476.17
2023-01-15T01:54:50.908Z,99496.10
2023-01-15T02:00:15.921Z,99468.78
2023-01-15T02:05:57.148Z,99444.00
2023-01-15T02:11:27.710Z,99455.17
2023-01-15T02:17:03.777Z,99440.70
2023-01-15T02:23:04.951Z,99442.76
2023-01-15T02:28:23.159Z,99417.48
2023-01-15T02:34:03.842Z,99405.00
2023-01-15T02:39:29.949Z,99403.17
2023-01-15T02:44:56.578Z,99382.75
2023-01-15T02:50:35.464Z,99365.18
2023-01-15T02:56:03.607Z,99371.56
2023-01-15T03:01:34.052Z,99380.06
2023-01-15T03:07:01.411Z,99371.14
2023-01-15T03:13:04.733Z,99344.85
2023-01-15T03:18:31.159Z,99339.13
2023-01-15T03:23:59.601Z,99331.96
2023-01-15T03:29:24.896Z,99329.72
2023-01-15T03:35:07.149Z,99320.63
2023-01-15T03:40:30.227Z,99331.42
2023-01-15T03:45:55.516Z,99327.80
2023-01-15T03:51:28.676Z,99339.77
2023-01-15T03:57:07.660Z,99326.91
2023-01-15T04:02:32.357Z,99309.33
2023-01-15T04:07:55.238Z,99312.60
2023-01-15T04:13:18.986Z,99301.64
2023-01-15T04:18:41.729Z,99315.70
2023-01-15T04:24:04.446Z,99309.13
2023-01-15T04:29:27.116Z,99274.95
2023-01-15T04:34:49.815Z,99279.17
2023-01-15T04:45:46.241Z,99254.83
2023-01-15T04:51:11.406Z,99244.38
2023-01-15T04:56:34.885Z,99238.60
2023-01-15T05:02:04.650Z,99219.75
2023-01-15T05:07:23.243Z,99223.55
2023-01-15T05:12:45.768Z,99210.19
2023-01-15T05:18:10.034Z,99209.20
2023-01-15T05:23:32.358Z,99200.34
2023-01-15T05:28:55.671Z,99191.58
2023-01-15T05:34:18.502Z,99194.25
2023-01-15T05:39:40.922Z,99188.62
2023-01-15T05:45:03.778Z,99180.99
2023-01-15T05:50:28.414Z,99183.09
2023-01-15T05:55:50.107Z,99177.11
2023-01-15T06:01:13.952Z,99192.54
2023-01-15T06:06:37.496Z,99194.61
2023-01-15T06:12:00.126Z,99191.55
2023-01-15T06:17:22.499Z,99184.95
2023-01-15T06:22:47.659Z,99201.09
2023-01-15T06:28:11.595Z,99191.77
2023-01-15T06:33:34.230Z,99194.92
2023-01-15T06:38:57.591Z,99191.55
2023-01-15T06:44:41.172Z,99183.31
2023-01-15T06:50:05.420Z,99184.87
2023-01-15T06:55:28.172Z,99172.52
2023-01-15T07:06:32.833Z,99157.42
2023-01-15T07:11:57.582Z,99161.30
2023-01-15T07:17:22.559Z,99148.58
2023-01-15T07:22:46.794Z,99152.67
2023-01-15T07:28:11.774Z,99145.27
2023-01-15T07:33:36.440Z,99157.37
2023-01-15T07:39:00.213Z,99150.41
2023-01-15T07:44:42.492Z,99153.28
2023-01-15T07:50:05.537Z,99151.05
2023-01-15T07:55:28.696Z,99144.23
2023-01-15T08:00:51.014Z,99134.72
2023-01-15T08:06:13.546Z,99138.95
2023-01-15T08:11:53.965Z,99133.23
2023-01-15T08:17:10.522Z,99135.21
2023-01-15T08:22:33.130Z,99137.64
2023-01-15T08:27:56.848Z,99143.41
2023-01-15T08:33:21.742Z,99144.30
2023-01-15T08:38:43.999Z,99144.06
2023-01-15T08:44:08.466Z,99147.16
2023-01-15T08:49:33.033Z,99140.45
2023-01-15T08:54:55.625Z,99129.20
2023-01-15T09:00:19.402Z,99122.20
2023-01-15T09:05:43.151Z,99122.66
2023-01-15T09:11:09.448Z,99128.56
2023-01-15T09:16:33.281Z,99130.11
2023-01-15T09:21:55.520Z,99121.41
2023-01-15T09:27:18.642Z,99128.30
2023-01-15T09:32:41.613Z,99129.04
2023-01-15T09:38:05.594Z,99122.70
2023-01-15T09:43:56.916Z,99130.44
2023-01-15T09:49:42.658Z,99126.08
2023-01-15T09:55:12.366Z,99115.39
2023-01-15T10:00:42.021Z,99116.09
2023-01-15T10:06:20.997Z,99111.58
2023-01-15T10:12:17.425Z,99106.38
2023-01-15T10:17:55.274Z,99127.77
2023-01-15T10:23:40.639Z,99138.81
2023-01-15T10:29:21.111Z,99188.78
2023-01-15T10:35:09.010Z,99226.38
2023-01-15T10:41:22.874Z,99229.17
2023-01-15T10:46:49.089Z,99245.31
2023-01-15T10:52:44.832Z,99223.66
2023-01-15T11:04:12.614Z,99239.14
2023-01-15T11:09:40.535Z,99238.86
2023-01-15T11:15:21.977Z,99250.70
2023-01-15T11:20:50.839Z,99267.27
2023-01-15T11:26:16.534Z,99264.17
2023-01-15T11:31:52.696Z,99254.82
2023-01-15T11:37:24.470Z,99253.89
2023-01-15T11:43:08.970Z,99263.32
2023-01-15T11:48:54.161Z,99266.71
2023-01-15T11:54:20.846Z,99282.55
2023-01-15T11:59:45.022Z,99277.87
2023-01-15T12:05:24.407Z,99287.38
2023-01-15T12:11:17.516Z,99306.73
2023-01-15T12:17:01.765Z,99288.55
2023-01-15T12:22:52.805Z,99288.55
2023-01-15T12:28:36.070Z,99294.66
2023-01-15T12:34:21.426Z,99269.44
2023-01-15T12:40:09.937Z,99271.13
2023-01-15T12:45:56.713Z,99285.00
2023-01-15T12:51:24.490Z,99312.89
2023-01-15T12:57:04.062Z,99307.34
2023-01-15T13:02:37.363Z,99317.53
2023-01-15T13:08:29.131Z,99315.23
2023-01-15T13:14:00.558Z,99307.86
2023-01-15T13:19:44.994Z,99321.28
2023-01-15T13:25:24.364Z,99346.07
2023-01-15T13:31:02.104Z,99361.30
2023-01-15T13:36:46.305Z,99358.84
2023-01-15T13:42:29.838Z,99360.04
2023-01-15T13:47:59.009Z,99344.81
2023-01-15T13:53:54.060Z,99321.31
2023-01-15T13:59:37.883Z,99336.22
2023-01-15T14:05:03.681Z,99344.20
2023-01-15T14:10:35.623Z,99335.25
2023-01-15T14:16:45.047Z,99344.08
2023-01-15T14:23:07.155Z,99352.38
2023-01-15T14:28:43.239Z,99364.95
2023-01-15T14:34:37.783Z,99363.48
2023-01-15T14:40:11.061Z,99381.45
2023-01-15T14:45:42.018Z,99369.65
2023-01-15T14:51:16.584Z,99361.98
2023-01-15T14:56:47.664Z,99354.23
2023-01-15T15:02:22.806Z,99360.94
2023-01-15T15:07:55.472Z,99377.51
2023-01-15T15:13:39.591Z,99381.13
2023-01-15T15:19:19.887Z,99387.41
2023-01-15T15:24:48.898Z,99387.61
2023-01-15T15:30:21.345Z,99376.24
2023-01-15T15:35:47.523Z,99369.23
2023-01-15T15:41:19.568Z,99350.31
2023-01-15T15:47:03.149Z,99360.45
2023-01-15T15:52:37.824Z,99357.05
2023-01-15T15:58:05.024Z,99346.73
2023-01-15T16:03:41.388Z,99350.12
2023-01-15T16:09:07.078Z,99390.84
2023-01-15T16:14:37.531Z,99398.74
2023-01-15T16:20:03.737Z,99404.98
2023-01-15T16:25:37.960Z,99414.04
2023-01-15T16:31:06.479Z,99401.82
2023-01-15T16:36:34.190Z,99407.98
2023-01-15T16:42:03.189Z,99408.10
2023-01-15T16:47:40.458Z,99424.16
2023-01-15T16:53:13.803Z,99432.44
2023-01-15T16:58:52.122Z,99430.12
2023-01-15T17:04:28.376Z,99417.79
2023-01-15T17:10:25.660Z,99447.02
2023-01-15T17:15:51.978Z,99450.61
2023-01-15T17:21:37.507Z,99481.66
2023-01-15T17:27:00.540Z,99495.16
2023-01-15T17:32:33.012Z,99468.59
2023-01-15T17:37:55.597Z,99510.37
2023-01-15T17:43:20.617Z,99496.23
2023-01-15T17:48:42.965Z,99524.17
2023-01-15T17:54:05.867Z,99513.98
2023-01-15T17:59:47.828Z,99513.14
2023-01-15T18:05:30.027Z,99537.83
2023-01-15T18:10:52.765Z,99511.24
2023-01-15T18:16:17.666Z,99526.02
2023-01-15T18:21:51.863Z,99502.28
2023-01-15T18:27:15.538Z,99527.83
2023-01-15T18:32:44.327Z,99524.20
2023-01-15T18:38:08.214Z,99518.48
2023-01-15T18:43:49.344Z,99529.75
2023-01-15T18:49:12.899Z,99524.95
2023-01-15T18:54:37.069Z,99507.72
2023-01-15T18:59:59.783Z,99528.23
2023-01-15T19:05:22.598Z,99522.19
2023-01-15T19:10:47.486Z,99535.13
2023-01-15T19:16:30.038Z,99534.28
2023-01-15T19:22:13.560Z,99535.66
2023-01-15T19:27:37.624Z,99543.11
2023-01-15T19:33:01.764Z,99547.68
2023-01-15T19:38:26.405Z,99545.82
2023-01-15T19:44:06.953Z,99553.16
2023-01-15T19:49:49.927Z,99544.55
2023-01-15T20:00:49.511Z,99531.05
2023-01-15T20:06:13.817Z,99525.72
2023-01-15T20:11:37.653Z,99550.37
2023-01-15T20:17:00.761Z,99545.34
2023-01-15T20:22:24.900Z,99537.94
2023-01-15T20:27:49.682Z,99541.84
2023-01-15T20:33:13.509Z,99540.03
2023-01-15T20:38:36.091Z,99536.45
2023-01-15T20:44:15.958Z,99548.10
2023-01-15T20:49:38.393Z,99541.20
2023-01-15T20:55:00.733Z,99539.28
2023-01-15T21:00:26.996Z,99546.62
2023-01-15T21:05:50.295Z,99532.27
2023-01-15T21:11:14.875Z,99512.09
2023-01-15T21:16:37.418Z,99550.66
2023-01-15T21:21:59.934Z,99528.23
2023-01-15T21:27:22.391Z,99538.76
2023-01-15T21:32:46.570Z,99539.25
2023-01-15T21:38:08.852Z,99513.16
2023-01-15T21:43:52.232Z,99531.18
2023-01-15T21:49:18.033Z,99542.97
2023-01-15T21:54:41.511Z,99544.20
2023-01-15T22:00:04.980Z,99527.74
2023-01-15T22:05:28.161Z,99539.00
2023-01-15T22:10:51.589Z,99543.56
2023-01-15T22:16:14.621Z,99542.25
2023-01-15T22:21:36.975Z,99521.66
2023-01-15T22:27:00.413Z,99517.77
2023-01-15T22:32:24.225Z,99506.29
2023-01-15T22:37:46.497Z,99538.90
2023-01-15T22:48:47.979Z,99507.02
2023-01-15T22:54:13.766Z,99523.85
2023-01-15T22:59:36.175Z,99511.00
2023-01-15T23:04:58.466Z,99518.30
2023-01-15T23:10:23.007Z,99499.52
2023-01-15T23:15:45.267Z,99519.46
2023-01-15T23:21:12.155Z,99522.44
2023-01-15T23:26:37.749Z,99518.85
2023-01-15T23:32:00.205Z,99526.53
2023-01-15T23:37:22.663Z,99517.97
2023-01-15T23:43:02.433Z,99517.41
2023-01-15T23:48:25.019Z,99514.75
2023-01-15T23:53:47.630Z,99511.73
2023-01-15T23:59:10.979Z,99502.67
